createdAt,value
2023-05-10T00:02:54.029Z,6.52
2023-05-10T00:06:57.264Z,6.54
2023-05-10T00:11:00.046Z,6.55
2023-05-10T00:15:03.039Z,6.33
2023-05-10T00:19:06.840Z,6.22
2023-05-10T00:23:09.922Z,6.26
2023-05-10T00:27:12.648Z,6.14
2023-05-10T00:31:15.972Z,6.02
2023-05-10T00:35:20.624Z,5.91
2023-05-10T00:39:23.353Z,5.75
2023-05-10T00:43:26.377Z,5.66
2023-05-10T00:47:30.087Z,5.56
2023-05-10T00:51:34.480Z,5.62
2023-05-10T00:55:37.822Z,5.56
2023-05-10T00:59:40.064Z,5.50
2023-05-10T01:03:43.837Z,5.39
2023-05-10T01:07:48.326Z,5.41
2023-05-10T01:11:52.316Z,5.22
2023-05-10T01:15:55.576Z,5.24
2023-05-10T01:19:58.684Z,5.05
2023-05-10T01:24:31.221Z,4.90
2023-05-10T01:29:00.937Z,4.94
2023-05-10T01:33:15.475Z,4.80
2023-05-10T01:37:23.152Z,4.71
2023-05-10T01:41:32.843Z,4.65
2023-05-10T01:45:39.385Z,4.43
2023-05-10T01:49:47.470Z,4.20
2023-05-10T01:53:51.385Z,4.06
2023-05-10T01:58:02.461Z,3.93
2023-05-10T02:02:08.358Z,3.71
2023-05-10T02:06:15.282Z,3.50
2023-05-10T02:10:19.414Z,3.34
2023-05-10T02:14:25.655Z,3.25
2023-05-10T02:18:29.922Z,3.17
2023-05-10T02:22:35.394Z,2.95
2023-05-10T02:26:40.577Z,2.88
2023-05-10T02:30:44.107Z,2.99
2023-05-10T02:34:47.781Z,3.13
2023-05-10T02:38:54.354Z,3.04
2023-05-10T02:42:59.963Z,3.12
2023-05-10T02:47:03.031Z,3.21
2023-05-10T02:51:09.726Z,3.26
2023-05-10T02:55:17.273Z,3.29
2023-05-10T02:59:20.437Z,3.25
2023-05-10T03:03:25.442Z,3.22
2023-05-10T03:07:28.519Z,3.31
2023-05-10T03:11:46.698Z,3.24
2023-05-10T03:15:58.572Z,3.25
2023-05-10T03:20:12.938Z,3.40
2023-05-10T03:24:17.347Z,3.70
2023-05-10T03:28:23.813Z,3.91
2023-05-10T03:32:28.376Z,4.10
2023-05-10T03:36:31.134Z,4.17
2023-05-10T03:40:33.956Z,4.16
2023-05-10T03:44:38.474Z,4.20
2023-05-10T03:48:41.103Z,4.26
2023-05-10T03:52:44.703Z,4.48
2023-05-10T03:56:49.058Z,4.78
2023-05-10T04:00:53.561Z,5.70
2023-05-10T04:04:57.587Z,6.23
2023-05-10T04:09:05.161Z,6.49
2023-05-10T04:13:08.661Z,6.90
2023-05-10T04:17:13.470Z,7.97
2023-05-10T04:21:16.804Z,9.88
2023-05-10T04:25:19.970Z,11.71
2023-05-10T04:29:22.615Z,13.68
2023-05-10T04:33:27.180Z,16.11
2023-05-10T04:37:30.125Z,17.77
2023-05-10T04:41:33.102Z,18.79
2023-05-10T04:45:39.353Z,20.03
2023-05-10T04:49:43.712Z,20.81
2023-05-10T04:53:54.149Z,20.82
2023-05-10T04:58:04.752Z,21.66
2023-05-10T05:02:07.892Z,21.14
2023-05-10T05:06:12.072Z,22.38
2023-05-10T05:10:15.783Z,23.18
2023-05-10T05:14:18.998Z,23.82
2023-05-10T05:18:22.111Z,24.66
2023-05-10T05:22:28.884Z,24.38
2023-05-10T05:26:31.900Z,24.25
2023-05-10T05:30:34.658Z,25.33
2023-05-10T05:34:37.672Z,25.84
2023-05-10T05:38:42.151Z,26.69
2023-05-10T05:42:45.286Z,26.77
2023-05-10T05:46:48.204Z,26.98
2023-05-10T05:50:51.613Z,26.83
2023-05-10T05:54:56.060Z,25.94
2023-05-10T05:58:59.031Z,26.33
2023-05-10T06:03:02.134Z,27.39
2023-05-10T06:07:05.351Z,27.28
2023-05-10T06:11:09.434Z,25.81
2023-05-10T06:15:13.104Z,25.81
2023-05-10T06:19:15.963Z,27.36
2023-05-10T06:23:19.535Z,27.53
2023-05-10T06:27:24.332Z,27.96
2023-05-10T06:31:27.682Z,28.00
2023-05-10T06:35:30.943Z,27.63
2023-05-10T06:39:34.025Z,26.73
2023-05-10T06:43:41.184Z,26.64
2023-05-10T06:47:44.567Z,26.20
2023-05-10T06:51:47.708Z,27.09
2023-05-10T06:55:52.028Z,28.52
2023-05-10T06:59:57.363Z,28.78
2023-05-10T07:04:00.205Z,27.76
2023-05-10T07:08:03.397Z,27.94
2023-05-10T07:12:08.236Z,28.39
2023-05-10T07:16:14.751Z,26.05
2023-05-10T07:20:17.950Z,25.62
2023-05-10T07:24:21.208Z,26.58
2023-05-10T07:28:25.428Z,26.79
2023-05-10T07:32:30.118Z,26.73
2023-05-10T07:36:33.666Z,25.71
2023-05-10T07:40:37.287Z,26.50
2023-05-10T07:44:40.399Z,27.21
2023-05-10T07:48:44.957Z,27.35
2023-05-10T07:52:50.783Z,27.48
2023-05-10T07:56:53.937Z,27.43
2023-05-10T08:00:57.722Z,27.07
2023-05-10T08:05:01.908Z,27.54
2023-05-10T08:09:04.821Z,27.13
2023-05-10T08:13:07.898Z,26.32
2023-05-10T08:17:10.793Z,26.72
2023-05-10T08:21:15.154Z,26.27
2023-05-10T08:25:18.691Z,26.29
2023-05-10T08:29:21.901Z,27.05
2023-05-10T08:33:25.138Z,26.92
2023-05-10T08:37:33.442Z,27.40
2023-05-10T08:41:39.071Z,27.33
2023-05-10T08:45:43.447Z,27.40
2023-05-10T08:49:49.282Z,27.87
2023-05-10T08:53:54.167Z,26.74
2023-05-10T08:57:57.387Z,27.07
2023-05-10T09:02:01.307Z,26.87
2023-05-10T09:06:04.496Z,26.16
2023-05-10T09:10:14.215Z,27.05
2023-05-10T09:14:21.035Z,25.83
2023-05-10T09:18:25.561Z,25.04
2023-05-10T09:22:29.914Z,24.70
2023-05-10T09:26:34.863Z,24.77
2023-05-10T09:30:38.651Z,24.20
2023-05-10T09:34:43.522Z,24.75
2023-05-10T09:38:50.152Z,24.79
2023-05-10T09:42:59.434Z,24.03
2023-05-10T09:47:02.697Z,23.05
2023-05-10T09:51:05.665Z,22.54
2023-05-10T09:55:11.864Z,22.48
2023-05-10T09:59:21.024Z,22.20
2023-05-10T10:03:25.520Z,21.68
2023-05-10T10:07:28.987Z,21.58
2023-05-10T10:11:32.573Z,21.41
2023-05-10T10:15:37.376Z,21.87
2023-05-10T10:19:40.562Z,22.11
2023-05-10T10:23:44.749Z,22.06
2023-05-10T10:28:05.844Z,21.59
2023-05-10T10:32:23.132Z,21.26
2023-05-10T10:36:28.352Z,21.26
2023-05-10T10:40:34.856Z,21.17
2023-05-10T10:44:40.472Z,21.46
2023-05-10T10:48:50.337Z,21.51
2023-05-10T10:52:54.282Z,22.02
2023-05-10T10:57:17.633Z,22.07
2023-05-10T11:01:21.923Z,21.94
2023-05-10T11:05:40.072Z,21.39
2023-05-10T11:09:42.885Z,20.90
2023-05-10T11:13:50.866Z,20.60
2023-05-10T11:17:55.235Z,20.47
2023-05-10T11:22:18.171Z,20.54
2023-05-10T11:26:24.314Z,20.51
2023-05-10T11:30:27.551Z,20.54
2023-05-10T11:34:34.892Z,20.52
2023-05-10T11:38:39.379Z,20.40
2023-05-10T11:42:42.448Z,20.13
2023-05-10T11:46:45.633Z,20.26
2023-05-10T11:50:49.023Z,19.99
2023-05-10T11:54:55.194Z,20.35
2023-05-10T11:58:59.800Z,20.31
2023-05-10T12:03:04.234Z,20.15
2023-05-10T12:07:07.500Z,19.93
2023-05-10T12:11:12.682Z,19.82
2023-05-10T12:15:21.273Z,19.59
2023-05-10T12:19:24.351Z,19.60
2023-05-10T12:23:29.021Z,19.77
2023-05-10T12:31:57.967Z,19.95
2023-05-10T12:36:02.519Z,19.97
2023-05-10T12:40:12.005Z,19.90
2023-05-10T12:44:16.305Z,19.95
2023-05-10T12:48:19.170Z,20.09
2023-05-10T12:52:24.366Z,19.77
2023-05-10T12:56:27.264Z,19.65
2023-05-10T13:00:31.383Z,19.61
2023-05-10T13:04:34.386Z,19.53
2023-05-10T13:08:37.358Z,19.77
2023-05-10T13:12:40.262Z,19.43
2023-05-10T13:16:45.984Z,19.63
2023-05-10T13:20:50.841Z,19.21
2023-05-10T13:24:53.868Z,19.26
2023-05-10T13:28:57.199Z,19.21
2023-05-10T13:33:01.952Z,18.95
2023-05-10T13:37:05.496Z,19.06
2023-05-10T13:41:09.517Z,18.93
2023-05-10T13:45:14.382Z,18.61
2023-05-10T13:49:18.675Z,18.57
2023-05-10T13:53:22.107Z,18.55
2023-05-10T13:57:25.277Z,18.53
2023-05-10T14:01:28.178Z,18.60
2023-05-10T14:05:32.717Z,18.60
2023-05-10T14:09:35.723Z,18.30
2023-05-10T14:13:38.383Z,18.08
2023-05-10T14:17:40.882Z,18.00
2023-05-10T14:21:45.688Z,18.05
2023-05-10T14:25:48.904Z,18.05
2023-05-10T14:29:51.906Z,17.95
2023-05-10T14:33:55.286Z,17.84
2023-05-10T14:37:59.770Z,17.82
2023-05-10T14:42:03.824Z,17.83
2023-05-10T14:46:07.012Z,17.90
2023-05-10T14:50:10.812Z,17.97
2023-05-10T14:54:15.970Z,17.99
2023-05-10T14:58:19.831Z,17.94
2023-05-10T15:02:22.585Z,17.63
2023-05-10T15:06:29.621Z,17.67
2023-05-10T15:14:54.905Z,17.58
2023-05-10T15:18:58.036Z,17.56
2023-05-10T15:23:01.061Z,17.52
2023-05-10T15:27:03.968Z,17.44
2023-05-10T15:31:08.321Z,17.36
2023-05-10T15:35:11.818Z,17.32
2023-05-10T15:39:14.675Z,17.28
2023-05-10T15:43:17.774Z,17.22
2023-05-10T15:47:24.273Z,17.20
2023-05-10T15:51:27.807Z,17.10
2023-05-10T15:55:31.243Z,17.04
2023-05-10T15:59:35.949Z,16.95
2023-05-10T16:03:40.544Z,16.80
2023-05-10T16:07:44.684Z,16.75
2023-05-10T16:11:47.458Z,16.66
2023-05-10T16:15:50.597Z,16.61
2023-05-10T16:19:54.991Z,16.58
2023-05-10T16:23:58.106Z,16.53
2023-05-10T16:28:01.853Z,16.48
2023-05-10T16:32:04.912Z,16.41
2023-05-10T16:36:09.659Z,16.34
2023-05-10T16:40:13.383Z,16.23
2023-05-10T16:44:18.970Z,16.15
2023-05-10T16:48:24.107Z,16.07
2023-05-10T16:52:29.054Z,16.00
2023-05-10T16:56:32.055Z,15.93
2023-05-10T17:00:35.349Z,15.81
2023-05-10T17:04:38.441Z,15.75
2023-05-10T17:08:43.450Z,15.64
2023-05-10T17:12:47.162Z,15.58
2023-05-10T17:16:57.492Z,15.45
2023-05-10T17:21:00.412Z,15.29
2023-05-10T17:25:05.728Z,15.22
2023-05-10T17:29:09.211Z,15.17
2023-05-10T17:33:12.431Z,15.00
2023-05-10T17:37:17.621Z,14.94
2023-05-10T17:41:22.366Z,14.84
2023-05-10T17:45:28.122Z,14.67
2023-05-10T17:49:31.478Z,14.58
2023-05-10T17:53:35.205Z,14.42
2023-05-10T17:57:39.395Z,14.23
2023-05-10T18:01:43.114Z,14.01
2023-05-10T18:05:51.511Z,13.84
2023-05-10T18:09:54.643Z,13.63
2023-05-10T18:13:59.528Z,13.41
2023-05-10T18:18:06.013Z,13.10
2023-05-10T18:22:11.206Z,12.92
2023-05-10T18:26:14.380Z,12.68
2023-05-10T18:30:19.174Z,12.52
2023-05-10T18:34:22.717Z,12.43
2023-05-10T18:38:25.833Z,12.25
2023-05-10T18:42:28.942Z,12.10
2023-05-10T18:46:36.035Z,11.93
2023-05-10T18:50:39.737Z,11.83
2023-05-10T18:54:42.939Z,11.84
2023-05-10T18:58:46.381Z,11.67
2023-05-10T19:02:50.940Z,11.57
2023-05-10T19:06:54.246Z,11.60
2023-05-10T19:10:57.108Z,11.37
2023-05-10T19:14:59.644Z,11.10
2023-05-10T19:19:04.296Z,10.81
2023-05-10T19:23:10.270Z,10.70
2023-05-10T19:27:14.634Z,10.59
2023-05-10T19:31:17.929Z,10.61
2023-05-10T19:35:22.713Z,10.65
2023-05-10T19:39:26.324Z,10.63
2023-05-10T19:43:29.908Z,10.61
2023-05-10T19:47:34.970Z,10.52
2023-05-10T19:51:38.998Z,10.52
2023-05-10T19:55:42.330Z,10.36
2023-05-10T19:59:44.914Z,10.21
2023-05-10T20:03:48.396Z,10.25
2023-05-10T20:07:53.197Z,10.19
2023-05-10T20:11:56.899Z,10.22
2023-05-10T20:16:02.355Z,10.15
2023-05-10T20:20:05.630Z,10.14
2023-05-10T20:24:10.382Z,10.13
2023-05-10T20:28:13.401Z,10.28
2023-05-10T20:32:24.716Z,10.38
2023-05-10T20:36:27.828Z,10.30
2023-05-10T20:40:33.356Z,10.26
2023-05-10T20:44:36.495Z,10.21
2023-05-10T20:48:39.720Z,10.14
2023-05-10T20:52:42.993Z,10.11
2023-05-10T20:56:47.475Z,10.02
2023-05-10T21:00:52.008Z,9.91
2023-05-10T21:04:57.121Z,9.85
2023-05-10T21:09:03.678Z,9.70
2023-05-10T21:13:07.982Z,9.66
2023-05-10T21:17:11.280Z,9.63
2023-05-10T21:21:14.503Z,9.77
2023-05-10T21:25:17.457Z,9.67
2023-05-10T21:29:22.412Z,9.60
2023-05-10T21:33:25.345Z,9.52
2023-05-10T21:37:28.323Z,9.46
2023-05-10T21:41:31.341Z,9.41
2023-05-10T21:45:36.702Z,9.38
2023-05-10T21:49:39.316Z,9.27
2023-05-10T21:53:42.214Z,9.19
2023-05-10T21:57:45.639Z,9.13
2023-05-10T22:01:50.206Z,9.01
2023-05-10T22:05:53.426Z,8.90
2023-05-10T22:09:57.366Z,8.77
2023-05-10T22:14:00.893Z,8.71
2023-05-10T22:18:05.624Z,8.69
2023-05-10T22:22:08.875Z,8.73
2023-05-10T22:26:14.311Z,8.71
2023-05-10T22:30:18.108Z,8.65
2023-05-10T22:34:23.114Z,8.73
2023-05-10T22:38:26.449Z,8.77
2023-05-10T22:42:29.377Z,8.73
2023-05-10T22:46:33.542Z,8.66
2023-05-10T22:50:38.491Z,8.62
2023-05-10T22:54:41.180Z,8.52
2023-05-10T22:58:44.426Z,8.42
2023-05-10T23:02:47.960Z,8.47
2023-05-10T23:06:52.336Z,8.47
2023-05-10T23:10:55.904Z,8.50
2023-05-10T23:14:58.875Z,8.51
2023-05-10T23:19:02.281Z,8.43
2023-05-10T23:23:07.153Z,8.38
2023-05-10T23:27:09.937Z,8.47
2023-05-10T23:31:12.900Z,8.40
2023-05-10T23:35:17.740Z,8.33
2023-05-10T23:39:22.037Z,8.28
2023-05-10T23:43:26.788Z,8.26
2023-05-10T23:47:29.774Z,8.25
2023-05-10T23:51:33.105Z,8.23
2023-05-10T23:55:37.968Z,8.09
2023-05-10T23:59:40.549Z,8.13
